Time;durP1;ratioP1;P1;durP2;ratioP2;P2;SDS_P1;SDS_P2;PMS_P1;PMS_P2;Temp;Humidity;BMP_temperature;BMP_pressure;BME280_temperature;BME280_humidity;BME280_pressure;Samples;Min_cycle;Max_cycle;Signal;HPM_P1;HPM_P2
2021/05/10 00:00:38;;;;;;;3.40;3.10;;;;;;;;;;5030532;28;20402;-86
2021/05/10 00:03:34;;;;;;;3.17;2.90;;;;;;;;;;5033156;28;20423;-86
2021/05/10 00:06:22;;;;;;;12.50;11.47;;;;;;;;;;5005677;28;20422;-85
2021/05/10 00:09:25;;;;;;;39.27;32.57;;;;;;;;;;5035792;28;20448;-86
2021/05/10 00:15:38;;;;;;;5.00;3.20;;;;;;;;;;4981792;28;20466;-86
2021/05/10 00:18:32;;;;;;;2.80;2.57;;;;;;;;;;4928131;29;20426;-86
2021/05/10 00:21:05;;;;;;;4.03;2.53;;;;;;;;;;4928883;29;20601;-86
2021/05/10 00:27:25;;;;;;;6.90;3.50;;;;;;;;;;4957042;29;20471;-85
2021/05/10 00:29:54;;;;;;;4.93;2.60;;;;;;;;;;5038511;28;20420;-85
2021/05/10 00:32:23;;;;;;;4.40;2.23;;;;;;;;;;5057744;28;20438;-85
2021/05/10 00:35:13;;;;;;;3.10;2.90;;;;;;;;;;5076227;28;20497;-86
2021/05/10 00:37:40;;;;;;;6.43;2.80;;;;;;;;;;5079114;28;20915;-86
2021/05/10 00:40:09;;;;;;;2.93;2.73;;;;;;;;;;5094154;28;20784;-84
2021/05/10 00:42:49;;;;;;;3.73;2.20;;;;;;;;;;5079153;28;20411;-86
2021/05/10 00:45:52;;;;;;;5.90;3.40;;;;;;;;;;5064833;28;20524;-85
2021/05/10 00:49:23;;;;;;;2.67;2.47;;;;;;;;;;5085174;28;20453;-84
2021/05/10 00:55:35;;;;;;;3.73;2.63;;;;;;;;;;5002033;28;20558;-85
2021/05/10 00:58:28;;;;;;;2.97;2.77;;;;;;;;;;4973887;28;20423;-83
2021/05/10 01:01:22;;;;;;;3.70;2.93;;;;;;;;;;4973066;28;20439;-85
2021/05/10 01:03:58;;;;;;;3.20;3.00;;;;;;;;;;4982945;28;20418;-85
2021/05/10 01:07:09;;;;;;;;;;;;;;;;;;;;;
2021/05/10 01:14:00;;;;;;;3.10;2.90;;;;;;;;;;4926046;28;21009;-86
2021/05/10 01:17:04;;;;;;;;;;;;;;;;;;;;;
2021/05/10 01:20:25;;;;;;;2.97;2.67;;;;;;;;;;5042652;28;20400;-84
2021/05/10 01:23:14;;;;;;;2.80;2.37;;;;;;;;;;5008565;28;20443;-87
2021/05/10 01:29:41;;;;;;;4.90;2.93;;;;;;;;;;5022975;28;20439;-84
2021/05/10 01:32:11;;;;;;;2.30;2.10;;;;;;;;;;5036706;28;20494;-85
2021/05/10 01:35:29;;;;;;;3.00;2.70;;;;;;;;;;4949071;29;20479;-86
2021/05/10 01:38:23;;;;;;;3.40;2.40;;;;;;;;;;5041356;28;20886;-86
2021/05/10 01:40:56;;;;;;;3.33;2.50;;;;;;;;;;5084174;28;20425;-85
2021/05/10 01:43:48;;;;;;;;;;;;;;;;;;;;;
2021/05/10 01:49:49;;;;;;;2.53;2.33;;;;;;;;;;4996157;28;20433;-86
2021/05/10 01:52:30;;;;;;;3.43;2.40;;;;;;;;;;5000392;28;20418;-87
2021/05/10 01:55:58;;;;;;;;;;;;;;;;;;;;;
2021/05/10 01:59:14;;;;;;;2.90;2.70;;;;;;;;;;4987932;28;20440;-85
2021/05/10 02:05:55;;;;;;;3.53;2.83;;;;;;;;;;5072444;28;20449;-85
2021/05/10 02:08:10;;;;;;;4.43;4.00;;;;;;;;;;5077430;28;20518;-85
2021/05/10 02:10:45;;;;;;;3.47;3.17;;;;;;;;;;5081404;28;20404;-85
2021/05/10 02:13:52;;;;;;;5.20;3.67;;;;;;;;;;5027242;28;20405;-85
2021/05/10 02:20:15;;;;;;;7.10;5.33;;;;;;;;;;5080923;28;20587;-85
2021/05/10 02:22:51;;;;;;;8.93;5.70;;;;;;;;;;5086565;28;20772;-85
2021/05/10 02:25:20;;;;;;;6.33;4.70;;;;;;;;;;5067159;28;20454;-84
2021/05/10 02:27:50;;;;;;;5.33;4.80;;;;;;;;;;5063339;28;20469;-85
2021/05/10 02:31:04;;;;;;;4.00;3.67;;;;;;;;;;5025915;28;20421;-85
2021/05/10 02:34:09;;;;;;;;;;;;;;;;;;;;;
2021/05/10 02:36:46;;;;;;;4.13;3.80;;;;;;;;;;5065572;28;20389;-84
2021/05/10 02:39:15;;;;;;;7.23;4.47;;;;;;;;;;5090037;28;20406;-85
2021/05/10 02:42:10;;;;;;;;;;;;;;;;;;;;;
2021/05/10 02:45:11;;;;;;;3.67;3.30;;;;;;;;;;5094343;28;20524;-84
2021/05/10 02:47:49;;;;;;;2.90;2.17;;;;;;;;;;5082423;28;20441;-85
2021/05/10 02:50:18;;;;;;;3.43;3.13;;;;;;;;;;5082641;28;20412;-85
2021/05/10 02:56:29;;;;;;;5.10;2.30;;;;;;;;;;5098632;28;20421;-85
2021/05/10 02:59:09;;;;;;;5.83;2.63;;;;;;;;;;5081567;28;20441;-86
2021/05/10 03:02:17;;;;;;;;;;;;;;;;;;;;;
2021/05/10 03:08:10;;;;;;;3.03;2.73;;;;;;;;;;5094791;28;20494;-85
2021/05/10 03:11:21;;;;;;;5.10;2.43;;;;;;;;;;5017713;28;20415;-85
2021/05/10 03:13:50;;;;;;;2.77;2.53;;;;;;;;;;5010403;28;20407;-84
2021/05/10 03:16:30;;;;;;;7.47;2.67;;;;;;;;;;5011566;28;20424;-85
2021/05/10 03:19:24;;;;;;;;;;;;;;;;;;;;;
2021/05/10 03:22:29;;;;;;;4.00;2.70;;;;;;;;;;5012090;28;20488;-85
2021/05/10 03:25:17;;;;;;;;;;;;;;;;;;;;;
2021/05/10 03:27:56;;;;;;;3.43;2.70;;;;;;;;;;5025184;28;20880;-84
2021/05/10 03:31:06;;;;;;;7.67;3.93;;;;;;;;;;5041195;28;20452;-85
2021/05/10 03:36:46;;;;;;;4.50;2.90;;;;;;;;;;5098984;28;20472;-86
2021/05/10 03:39:26;;;;;;;4.87;3.30;;;;;;;;;;5066098;28;20510;-84
2021/05/10 03:42:28;;;;;;;2.97;2.60;;;;;;;;;;5067877;28;20444;-86
2021/05/10 03:48:29;;;;;;;4.03;3.20;;;;;;;;;;4982435;28;20475;-87
2021/05/10 03:51:42;;;;;;;;;;;;;;;;;;;;;
2021/05/10 03:54:40;;;;;;;6.73;3.30;;;;;;;;;;5005632;28;20616;-85
2021/05/10 04:00:51;;;;;;;;;;;;;;;;;;;;;
2021/05/10 04:09:43;;;;;;;2.70;2.50;;;;;;;;;;5170215;22;20479;-86
2021/05/10 04:15:47;;;;;;;3.97;3.20;;;;;;;;;;5122033;28;20475;-87
2021/05/10 04:22:14;;;;;;;;;;;;;;;;;;;;;
2021/05/10 04:41:37;;;;;;;3.57;2.60;;;;;;;;;;4479563;22;20482;-86
2021/05/10 04:48:33;;;;;;;3.67;2.30;;;;;;;;;;5056323;28;20511;-89
2021/05/10 06:43:59;;;;;;;8.93;3.13;;;;;;;;;;4221490;26;20647;-86
2021/05/10 06:46:26;;;;;;;5.60;2.83;;;;;;;;;;5024409;28;20478;-87
2021/05/10 06:49:22;;;;;;;4.17;2.87;;;;;;;;;;5047217;28;20535;-86
2021/05/10 06:51:59;;;;;;;5.70;2.57;;;;;;;;;;5035415;28;20567;-85
2021/05/10 06:54:54;;;;;;;9.67;5.00;;;;;;;;;;5098983;28;20405;-86
2021/05/10 07:21:47;;;;;;;3.20;2.50;;;;;;;;;;3231034;22;20501;-87
2021/05/10 07:24:22;;;;;;;5.77;4.30;;;;;;;;;;5107005;28;20407;-87
2021/05/10 07:27:37;;;;;;;2.70;2.50;;;;;;;;;;5121634;28;20418;-87
2021/05/10 07:29:51;;;;;;;4.60;2.10;;;;;;;;;;5119232;28;20503;-87
2021/05/10 09:10:27;;;;;;;;;;;;;;;;;;;;;
2021/05/10 09:17:37;;;;;;;;;;;;;;;;;;;;;
2021/05/10 13:12:37;;;;;;;;;;;;;;;;;;;;;
2021/05/10 17:59:37;;;;;;;;;;;;;;;;;;;;;
2021/05/10 18:10:06;;;;;;;;;;;;;;;;;;;;;
2021/05/10 21:08:42;;;;;;;6.30;3.37;;;;;;;;;;3953230;22;20482;-82
2021/05/10 21:11:09;;;;;;;5.53;4.23;;;;;;;;;;5111055;28;20402;-83
2021/05/10 21:13:35;;;;;;;3.70;3.40;;;;;;;;;;5109303;28;20408;-81
2021/05/10 21:16:01;;;;;;;5.53;3.30;;;;;;;;;;5109520;28;20612;-82
2021/05/10 21:18:29;;;;;;;10.03;4.17;;;;;;;;;;5092687;28;20395;-83
2021/05/10 21:20:59;;;;;;;2.50;2.30;;;;;;;;;;5109513;28;20398;-82
2021/05/10 21:23:26;;;;;;;4.77;3.00;;;;;;;;;;5111468;28;20403;-82
2021/05/10 21:25:52;;;;;;;5.70;3.40;;;;;;;;;;5115584;28;20460;-83
2021/05/10 21:28:18;;;;;;;4.03;2.83;;;;;;;;;;5118141;28;20412;-81
2021/05/10 21:30:44;;;;;;;5.87;3.13;;;;;;;;;;5118291;28;20421;-84
2021/05/10 21:33:14;;;;;;;3.30;2.67;;;;;;;;;;5117511;28;20408;-83
2021/05/10 21:35:44;;;;;;;6.80;2.60;;;;;;;;;;5119632;28;20438;-82
2021/05/10 21:38:11;;;;;;;7.07;2.80;;;;;;;;;;5120321;28;20491;-81
2021/05/10 21:40:39;;;;;;;3.23;2.93;;;;;;;;;;5120354;28;20432;-83
2021/05/10 21:43:07;;;;;;;4.60;3.07;;;;;;;;;;5119874;28;20399;-82
2021/05/10 21:45:34;;;;;;;3.10;2.30;;;;;;;;;;5119931;28;20387;-84
2021/05/10 21:48:10;;;;;;;3.53;2.50;;;;;;;;;;5119583;28;20432;-84
2021/05/10 21:50:37;;;;;;;2.80;2.50;;;;;;;;;;5116380;28;20470;-83
2021/05/10 21:53:03;;;;;;;3.23;2.93;;;;;;;;;;5116991;28;20415;-82
2021/05/10 21:55:29;;;;;;;3.70;2.70;;;;;;;;;;5117305;28;20408;-83
2021/05/10 21:57:58;;;;;;;3.60;2.57;;;;;;;;;;5118330;28;20411;-83
2021/05/10 22:00:35;;;;;;;3.33;3.03;;;;;;;;;;5117966;28;20438;-83
2021/05/10 22:03:04;;;;;;;3.30;2.93;;;;;;;;;;5120320;28;20386;-82
2021/05/10 22:05:30;;;;;;;2.60;2.40;;;;;;;;;;5102362;28;20417;-82
2021/05/10 22:07:56;;;;;;;3.70;3.00;;;;;;;;;;5118898;28;20423;-83
2021/05/10 22:10:23;;;;;;;6.80;2.90;;;;;;;;;;5118910;28;20455;-83
2021/05/10 22:12:49;;;;;;;4.63;2.90;;;;;;;;;;5118869;28;20468;-82
2021/05/10 22:15:15;;;;;;;3.60;2.80;;;;;;;;;;5119271;28;20402;-82
2021/05/10 22:17:44;;;;;;;3.10;2.80;;;;;;;;;;5118458;28;20438;-82
2021/05/10 22:20:20;;;;;;;3.03;2.83;;;;;;;;;;5119074;28;20467;-82
2021/05/10 22:22:58;;;;;;;3.90;2.40;;;;;;;;;;5119272;28;20399;-83
2021/05/10 22:25:30;;;;;;;3.37;3.10;;;;;;;;;;5118572;28;20467;-83
2021/05/10 22:28:14;;;;;;;6.03;3.73;;;;;;;;;;5119293;28;20415;-83
2021/05/10 22:30:46;;;;;;;4.83;3.70;;;;;;;;;;5120063;28;20435;-82
2021/05/10 22:33:12;;;;;;;2.90;2.70;;;;;;;;;;5118264;28;20471;-83
2021/05/10 22:35:40;;;;;;;3.97;3.60;;;;;;;;;;5118652;28;20435;-82
2021/05/10 22:38:18;;;;;;;3.63;3.30;;;;;;;;;;5119470;28;20447;-82
2021/05/10 22:40:49;;;;;;;3.60;2.97;;;;;;;;;;5119788;28;20423;-81
2021/05/10 22:49:25;;;;;;;3.43;3.13;;;;;;;;;;5119456;28;20516;-81
2021/05/10 23:13:03;;;;;;;2.77;2.57;;;;;;;;;;5108807;28;20412;-83
2021/05/10 23:15:58;;;;;;;2.90;2.70;;;;;;;;;;5087234;28;20436;-81
2021/05/10 23:18:27;;;;;;;3.47;2.67;;;;;;;;;;5119286;28;20507;-82
2021/05/10 23:20:54;;;;;;;3.77;3.10;;;;;;;;;;5118697;28;20423;-82
2021/05/10 23:23:22;;;;;;;4.80;3.53;;;;;;;;;;5117567;28;20391;-83
2021/05/10 23:25:48;;;;;;;2.73;2.53;;;;;;;;;;5118525;28;20408;-82
2021/05/10 23:28:14;;;;;;;3.93;3.00;;;;;;;;;;5116701;28;20441;-82
2021/05/10 23:30:41;;;;;;;3.90;2.83;;;;;;;;;;5116117;28;20450;-84
2021/05/10 23:33:07;;;;;;;3.50;3.00;;;;;;;;;;5118174;28;20411;-81
2021/05/10 23:35:35;;;;;;;5.20;3.40;;;;;;;;;;5117863;28;20414;-80
2021/05/10 23:38:04;;;;;;;3.83;3.47;;;;;;;;;;5118080;28;20380;-83
2021/05/10 23:40:30;;;;;;;2.90;2.70;;;;;;;;;;5117453;28;20458;-82
2021/05/10 23:42:56;;;;;;;2.40;2.20;;;;;;;;;;5116953;28;20494;-82
2021/05/10 23:45:22;;;;;;;4.10;2.80;;;;;;;;;;5116565;28;20423;-82
2021/05/10 23:47:48;;;;;;;3.53;2.30;;;;;;;;;;5099283;28;20440;-83
2021/05/10 23:50:14;;;;;;;3.37;2.60;;;;;;;;;;5117358;28;20462;-82
2021/05/10 23:52:40;;;;;;;3.10;2.90;;;;;;;;;;5118297;28;20387;-83
2021/05/10 23:55:07;;;;;;;3.33;3.07;;;;;;;;;;5118406;28;20476;-81
2021/05/10 23:57:32;;;;;;;2.80;2.60;;;;;;;;;;5118822;28;20411;-83
2021/05/10 23:59:58;;;;;;;4.20;3.50;;;;;;;;;;5117972;28;20437;-81
